ORBM/OSM METAR and TAF weather

Enter ICAO airport designator
Station Type Date Time Source
ORBM METAR 2016/02/17 06:00 UTC NOAA

ORBM 170600Z 31004KT CAVOK 15/07 Q1022 NOSIG


Station Type Date Time Source
ORBM Decoded METAR 2016/02/17 06:00 UTC NOAA

Mosul, Iraq (ORBM) 36-19N 043-09E 223M
Feb 17, 2016 - 01:00 AM EST / 2016.02.17 0600 UTC
Wind: from the NW (310 degrees) at 5 MPH (4 KT):0
Visibility: greater than 7 mile(s):0
Temperature: 59 F (15 C)
Dew Point: 44 F (7 C)
Relative Humidity: 58%
Pressure (altimeter): 30.18 in. Hg (1022 hPa)
ob: ORBM 170600Z 31004KT CAVOK 15/07 Q1022 NOSIG
cycle: 6

Station Type Date Time Source
ORBM TAF 2014/06/07 12:37 UTC NOAA

TAF ORBM 071000Z 0712/0812 VRB03KT CAVOK


Example: see airport list